createdAt,value
2024-02-21T00:00:45.302Z,2.20
2024-02-21T00:03:14.448Z,2.20
2024-02-21T00:05:45.235Z,2.33
2024-02-21T00:08:14.571Z,1.80
2024-02-21T00:10:43.653Z,1.77
2024-02-21T00:13:12.757Z,2.90
2024-02-21T00:15:41.848Z,1.92
2024-02-21T00:18:12.950Z,2.45
2024-02-21T00:20:43.787Z,2.70
2024-02-21T00:23:12.933Z,4.03
2024-02-21T00:25:42.088Z,2.72
2024-02-21T00:28:11.131Z,1.40
2024-02-21T00:30:40.158Z,3.90
2024-02-21T00:33:09.285Z,1.88
2024-02-21T00:35:38.519Z,1.73
2024-02-21T00:38:09.199Z,2.13
2024-02-21T00:40:38.624Z,1.50
2024-02-21T00:43:07.765Z,1.65
2024-02-21T00:45:36.769Z,2.45
2024-02-21T00:48:06.663Z,2.45
2024-02-21T00:50:35.872Z,2.05
2024-02-21T00:53:05.043Z,2.78
2024-02-21T00:55:36.408Z,2.17
2024-02-21T00:58:05.679Z,2.60
2024-02-21T01:00:34.733Z,2.80
2024-02-21T01:03:03.940Z,2.65
2024-02-21T01:05:32.978Z,2.05
2024-02-21T01:08:01.962Z,2.85
2024-02-21T01:10:32.006Z,4.00
2024-02-21T01:13:02.783Z,2.78
2024-02-21T01:15:31.834Z,2.70
2024-02-21T01:18:00.958Z,2.88
2024-02-21T01:20:30.071Z,4.07
2024-02-21T01:22:59.215Z,3.45
2024-02-21T01:25:28.307Z,4.82
2024-02-21T01:27:57.362Z,2.28
2024-02-21T01:30:28.065Z,3.30
2024-02-21T01:32:57.205Z,2.33
2024-02-21T01:35:26.438Z,4.20
2024-02-21T01:37:55.562Z,1.88
2024-02-21T01:40:24.672Z,2.03
2024-02-21T01:42:56.898Z,2.28
2024-02-21T01:45:27.533Z,2.50
2024-02-21T01:47:56.864Z,3.15
2024-02-21T01:50:26.769Z,3.88
2024-02-21T01:52:55.947Z,2.10
2024-02-21T01:55:25.485Z,2.22
2024-02-21T01:57:54.653Z,2.05
2024-02-21T02:00:24.513Z,2.85
2024-02-21T02:02:56.048Z,2.10
2024-02-21T02:05:25.321Z,5.05
2024-02-21T02:07:54.470Z,3.90
2024-02-21T02:10:23.660Z,3.42
2024-02-21T02:12:52.624Z,2.35
2024-02-21T02:15:21.825Z,2.13
2024-02-21T02:17:50.898Z,2.65
2024-02-21T02:20:21.719Z,3.08
2024-02-21T02:22:52.316Z,2.30
2024-02-21T02:25:23.508Z,2.28
2024-02-21T02:27:52.516Z,2.72
2024-02-21T02:30:21.470Z,3.90
2024-02-21T02:32:50.573Z,3.13
2024-02-21T02:35:19.744Z,3.83
2024-02-21T02:37:52.478Z,4.68
2024-02-21T02:40:23.292Z,2.60
2024-02-21T02:42:52.944Z,3.17
2024-02-21T02:45:21.888Z,4.22
2024-02-21T02:47:51.069Z,2.90
2024-02-21T02:50:20.086Z,3.55
2024-02-21T02:52:49.228Z,2.92
2024-02-21T02:55:18.496Z,3.90
2024-02-21T02:57:49.247Z,4.45
2024-02-21T03:00:18.657Z,4.47
2024-02-21T03:02:48.983Z,4.05
2024-02-21T03:05:19.293Z,3.90
2024-02-21T03:07:49.052Z,3.75
2024-02-21T03:10:21.076Z,4.75
2024-02-21T03:12:52.434Z,4.00
2024-02-21T03:15:21.786Z,4.32
2024-02-21T03:17:50.929Z,3.60
2024-02-21T03:20:21.809Z,4.90
2024-02-21T03:22:50.872Z,4.90
2024-02-21T03:25:21.655Z,4.20
2024-02-21T03:27:53.675Z,4.13
2024-02-21T03:30:22.763Z,4.05
2024-02-21T03:32:51.863Z,4.38
2024-02-21T03:35:20.927Z,4.40
2024-02-21T03:37:49.954Z,3.90
2024-02-21T03:40:19.010Z,6.20
2024-02-21T03:42:48.025Z,4.85
2024-02-21T03:45:18.661Z,5.70
2024-02-21T03:47:47.748Z,6.20
2024-02-21T03:50:17.094Z,6.03
2024-02-21T03:52:46.272Z,5.97
2024-02-21T03:55:15.427Z,4.60
2024-02-21T03:57:44.448Z,4.60
2024-02-21T04:00:14.232Z,4.70
2024-02-21T04:02:44.943Z,6.38
2024-02-21T04:05:14.038Z,4.60
2024-02-21T04:07:43.533Z,6.07
2024-02-21T04:10:12.770Z,5.45
2024-02-21T04:12:41.816Z,5.70
2024-02-21T04:15:11.696Z,5.18
2024-02-21T04:17:40.702Z,5.65
2024-02-21T04:20:17.911Z,5.65
2024-02-21T04:22:47.149Z,4.97
2024-02-21T04:25:16.300Z,7.15
2024-02-21T04:27:45.326Z,6.10
2024-02-21T04:30:15.109Z,6.35
2024-02-21T04:32:44.366Z,4.50
2024-02-21T04:35:15.218Z,4.90
2024-02-21T04:37:44.258Z,5.80
2024-02-21T04:40:15.196Z,5.93
2024-02-21T04:42:44.298Z,4.90
2024-02-21T04:45:13.720Z,4.95
2024-02-21T04:47:42.745Z,6.00
2024-02-21T04:50:13.807Z,7.40
2024-02-21T04:52:42.912Z,5.20
2024-02-21T04:55:11.989Z,5.80
2024-02-21T04:57:41.069Z,6.57
2024-02-21T05:00:11.381Z,5.93
2024-02-21T05:02:40.386Z,6.45
2024-02-21T05:05:10.572Z,7.00
2024-02-21T05:07:41.525Z,6.90
2024-02-21T05:10:11.657Z,5.97
2024-02-21T05:12:40.641Z,6.10
2024-02-21T05:15:10.499Z,5.90
2024-02-21T05:17:39.693Z,7.07
2024-02-21T05:20:09.819Z,6.50
2024-02-21T05:22:40.668Z,6.32
2024-02-21T05:25:10.594Z,6.55
2024-02-21T05:27:40.491Z,7.75
2024-02-21T05:30:10.599Z,6.38
2024-02-21T05:32:39.674Z,6.68
2024-02-21T05:35:09.266Z,7.10
2024-02-21T05:37:38.409Z,6.03
2024-02-21T05:40:10.375Z,6.40
2024-02-21T05:42:39.370Z,5.65
2024-02-21T05:45:09.144Z,8.23
2024-02-21T05:47:38.224Z,5.60
2024-02-21T05:50:08.313Z,5.55
2024-02-21T05:52:37.495Z,8.07
2024-02-21T05:55:09.025Z,5.50
2024-02-21T05:57:38.054Z,5.63
2024-02-21T06:00:08.643Z,6.32
2024-02-21T06:02:37.960Z,5.10
2024-02-21T06:05:09.541Z,6.72
2024-02-21T06:07:38.612Z,7.45
2024-02-21T06:10:10.973Z,6.70
2024-02-21T06:12:39.996Z,5.85
2024-02-21T06:15:10.169Z,7.18
2024-02-21T06:17:39.165Z,8.15
2024-02-21T06:20:09.460Z,6.63
2024-02-21T06:22:38.529Z,9.40
2024-02-21T06:25:09.755Z,8.25
2024-02-21T06:27:39.106Z,8.80
2024-02-21T06:30:09.197Z,9.77
2024-02-21T06:32:38.244Z,7.53
2024-02-21T06:35:08.179Z,8.35
2024-02-21T06:37:37.344Z,9.50
2024-02-21T06:40:09.321Z,9.90
2024-02-21T06:42:38.387Z,10.05
2024-02-21T06:45:08.274Z,7.50
2024-02-21T06:47:37.390Z,8.20
2024-02-21T06:50:07.256Z,7.43
2024-02-21T06:52:36.388Z,7.60
2024-02-21T06:55:05.821Z,7.03
2024-02-21T06:57:36.498Z,8.68
2024-02-21T07:00:09.923Z,7.03
2024-02-21T07:02:39.011Z,6.57
2024-02-21T07:05:08.877Z,6.57
2024-02-21T07:07:38.255Z,6.05
2024-02-21T07:10:07.984Z,6.00
2024-02-21T07:12:40.517Z,6.35
2024-02-21T07:15:09.812Z,6.45
2024-02-21T07:17:38.915Z,7.65
2024-02-21T07:20:09.202Z,6.88
2024-02-21T07:22:38.241Z,7.78
2024-02-21T07:25:08.293Z,8.32
2024-02-21T07:27:39.255Z,8.45
2024-02-21T07:30:09.455Z,8.32
2024-02-21T07:32:38.548Z,7.90
2024-02-21T07:35:12.681Z,8.45
2024-02-21T07:37:41.829Z,10.23
2024-02-21T07:40:16.095Z,13.43
2024-02-21T07:42:50.070Z,15.60
2024-02-21T07:45:23.755Z,17.65
2024-02-21T07:47:52.968Z,18.67
2024-02-21T07:50:22.174Z,18.20
2024-02-21T07:52:51.361Z,20.42
2024-02-21T07:55:20.667Z,24.88
2024-02-21T07:57:51.725Z,25.80
2024-02-21T08:00:21.952Z,21.98
2024-02-21T08:02:51.752Z,21.70
2024-02-21T08:05:20.858Z,22.63
2024-02-21T08:07:51.512Z,23.45
2024-02-21T08:10:20.770Z,22.45
2024-02-21T08:12:51.522Z,21.88
2024-02-21T08:15:20.593Z,24.17
2024-02-21T08:17:49.562Z,24.27
2024-02-21T08:20:18.845Z,22.88
2024-02-21T08:22:47.975Z,22.42
2024-02-21T08:25:17.128Z,26.02
2024-02-21T08:27:47.465Z,23.38
2024-02-21T08:30:18.690Z,24.02
2024-02-21T08:32:47.739Z,24.90
2024-02-21T08:35:17.065Z,27.05
2024-02-21T08:37:46.180Z,26.65
2024-02-21T08:40:15.352Z,27.00
2024-02-21T08:42:44.382Z,27.35
2024-02-21T08:45:13.585Z,29.85
2024-02-21T08:47:44.522Z,27.80
2024-02-21T08:50:23.236Z,28.92
2024-02-21T08:52:57.415Z,24.02
2024-02-21T08:55:26.629Z,19.55
2024-02-21T08:57:55.879Z,22.17
2024-02-21T09:00:29.230Z,21.55
2024-02-21T09:02:59.973Z,16.58
2024-02-21T09:05:29.100Z,14.65
2024-02-21T09:07:58.260Z,12.75
2024-02-21T09:10:27.359Z,14.27
2024-02-21T09:12:56.446Z,14.25
2024-02-21T09:15:26.249Z,17.65
2024-02-21T09:17:55.313Z,17.25
2024-02-21T09:20:26.248Z,18.77
2024-02-21T09:22:55.544Z,17.20
2024-02-21T09:25:24.713Z,15.32
2024-02-21T09:27:54.123Z,15.27
2024-02-21T09:30:23.294Z,16.63
2024-02-21T09:32:52.306Z,15.93
2024-02-21T09:35:21.566Z,16.20
2024-02-21T09:37:52.358Z,18.38
2024-02-21T09:40:21.653Z,17.65
2024-02-21T09:42:51.441Z,15.65
2024-02-21T09:45:23.640Z,15.35
2024-02-21T09:48:05.124Z,18.58
2024-02-21T09:50:36.936Z,18.38
2024-02-21T09:53:08.842Z,18.33
2024-02-21T09:55:42.138Z,16.77
2024-02-21T09:58:11.532Z,18.25
2024-02-21T10:00:40.676Z,16.88
2024-02-21T10:03:10.952Z,18.02
2024-02-21T10:05:41.191Z,20.63
2024-02-21T10:08:17.413Z,17.58
2024-02-21T10:10:47.592Z,21.63
2024-02-21T10:13:28.784Z,22.40
2024-02-21T10:16:08.442Z,20.33
2024-02-21T10:18:37.979Z,21.27
2024-02-21T10:21:08.501Z,17.23
2024-02-21T10:23:49.333Z,17.50
2024-02-21T10:26:19.899Z,19.40
2024-02-21T10:28:50.298Z,19.05
2024-02-21T10:31:26.474Z,19.88
2024-02-21T10:34:00.008Z,18.17
2024-02-21T10:36:29.215Z,21.38
2024-02-21T10:39:00.095Z,20.40
2024-02-21T10:41:31.046Z,24.38
2024-02-21T10:44:02.095Z,21.00
2024-02-21T10:46:34.197Z,23.13
2024-02-21T10:49:12.758Z,23.48
2024-02-21T10:51:46.292Z,28.20
2024-02-21T10:54:32.483Z,28.80
2024-02-21T10:57:05.699Z,29.13
2024-02-21T10:59:36.081Z,28.02
2024-02-21T11:02:06.008Z,29.02
2024-02-21T11:04:38.429Z,27.02
2024-02-21T11:07:11.066Z,24.90
2024-02-21T11:09:42.465Z,28.45
2024-02-21T11:12:12.286Z,26.08
2024-02-21T11:14:42.508Z,24.00
2024-02-21T11:17:18.892Z,17.95
2024-02-21T11:19:48.532Z,16.85
2024-02-21T11:22:21.603Z,15.50
2024-02-21T11:24:52.446Z,15.73
2024-02-21T11:27:23.324Z,17.25
2024-02-21T11:29:57.157Z,18.08
2024-02-21T11:32:27.263Z,12.25
2024-02-21T11:34:58.120Z,15.25
2024-02-21T11:37:29.420Z,13.50
2024-02-21T11:40:00.659Z,13.27
2024-02-21T11:42:30.900Z,13.90
2024-02-21T11:45:00.184Z,13.20
2024-02-21T11:47:31.545Z,10.88
2024-02-21T11:50:01.044Z,11.07
2024-02-21T11:52:30.316Z,11.32
2024-02-21T11:55:06.908Z,11.75
2024-02-21T11:57:37.587Z,10.80
2024-02-21T12:00:16.409Z,9.98
2024-02-21T12:02:46.084Z,11.65
2024-02-21T12:05:15.368Z,9.68
2024-02-21T12:07:44.830Z,8.68
2024-02-21T12:10:16.212Z,7.18
2024-02-21T12:12:45.352Z,5.13
2024-02-21T12:15:14.430Z,6.32
2024-02-21T12:17:43.770Z,4.22
2024-02-21T12:20:17.618Z,2.92
2024-02-21T12:22:46.694Z,3.20
2024-02-21T12:25:25.445Z,1.70
2024-02-21T12:27:54.821Z,2.28
2024-02-21T12:30:24.091Z,2.75
2024-02-21T12:32:53.338Z,1.63
2024-02-21T12:35:22.571Z,3.03
2024-02-21T12:37:52.267Z,2.45
2024-02-21T12:40:23.118Z,5.78
2024-02-21T12:42:53.000Z,1.33
2024-02-21T12:45:22.100Z,2.15
2024-02-21T12:47:51.579Z,1.33
2024-02-21T12:50:21.702Z,1.02
2024-02-21T12:52:51.629Z,2.95
2024-02-21T12:55:20.795Z,1.33
2024-02-21T12:57:51.604Z,0.95
2024-02-21T13:00:22.940Z,1.20
2024-02-21T13:02:53.469Z,2.28
2024-02-21T13:05:22.572Z,3.00
2024-02-21T13:07:51.784Z,1.48
2024-02-21T13:10:20.841Z,1.77
2024-02-21T13:12:51.511Z,2.58
2024-02-21T13:15:20.700Z,2.17
2024-02-21T13:17:49.808Z,2.25
2024-02-21T13:20:19.183Z,3.33
2024-02-21T13:22:48.370Z,2.13
2024-02-21T13:25:20.283Z,1.63
2024-02-21T13:27:51.138Z,1.67
2024-02-21T13:30:20.199Z,1.77
2024-02-21T13:32:49.379Z,2.15
2024-02-21T13:35:18.669Z,2.55
2024-02-21T13:37:47.837Z,2.28
2024-02-21T13:40:16.872Z,1.92
2024-02-21T13:42:46.093Z,1.70
2024-02-21T13:45:17.478Z,2.33
2024-02-21T13:47:46.584Z,2.75
2024-02-21T13:50:16.324Z,1.83
2024-02-21T13:52:45.440Z,1.90
2024-02-21T13:55:14.691Z,2.00
2024-02-21T13:57:43.781Z,2.45
2024-02-21T14:00:13.727Z,1.95
2024-02-21T14:02:44.388Z,2.92
2024-02-21T14:05:13.539Z,2.35
2024-02-21T14:07:42.588Z,5.43
2024-02-21T14:10:12.001Z,2.28
2024-02-21T14:12:42.044Z,1.85
2024-02-21T14:15:11.708Z,1.88
2024-02-21T14:17:41.177Z,2.60
2024-02-21T14:20:17.640Z,3.03
2024-02-21T14:22:47.320Z,4.13
2024-02-21T14:25:17.576Z,2.70
2024-02-21T14:27:46.559Z,4.40
2024-02-21T14:30:15.883Z,2.55
2024-02-21T14:32:47.840Z,2.75
2024-02-21T14:35:18.893Z,1.90
2024-02-21T14:37:48.005Z,1.73
2024-02-21T14:40:17.158Z,1.83
2024-02-21T14:42:46.188Z,2.10
2024-02-21T14:45:15.784Z,1.77
2024-02-21T14:47:44.952Z,1.83
2024-02-21T14:50:14.158Z,1.63
2024-02-21T14:52:46.098Z,2.38
2024-02-21T14:55:16.901Z,2.33
2024-02-21T14:57:46.578Z,2.97
2024-02-21T15:00:16.860Z,2.25
2024-02-21T15:02:45.913Z,2.85
2024-02-21T15:05:16.024Z,1.85
2024-02-21T15:07:46.774Z,2.08
2024-02-21T15:10:15.965Z,2.35
2024-02-21T15:12:46.563Z,3.33
2024-02-21T15:15:15.983Z,2.30
2024-02-21T15:17:45.221Z,2.55
2024-02-21T15:20:15.081Z,2.15
2024-02-21T15:22:46.033Z,2.30
2024-02-21T15:25:16.911Z,2.85
2024-02-21T15:27:46.168Z,2.95
2024-02-21T15:30:17.426Z,2.70
2024-02-21T15:32:46.864Z,3.67
2024-02-21T15:35:16.378Z,3.10
2024-02-21T15:37:47.158Z,3.53
2024-02-21T15:40:16.837Z,2.80
2024-02-21T15:42:45.837Z,3.05
2024-02-21T15:45:15.273Z,2.88
2024-02-21T15:47:44.571Z,3.10
2024-02-21T15:50:14.031Z,2.90
2024-02-21T15:52:43.313Z,2.85
2024-02-21T15:55:14.362Z,3.63
2024-02-21T15:57:43.392Z,2.80
2024-02-21T16:00:14.566Z,3.75
2024-02-21T16:02:43.661Z,3.47
2024-02-21T16:05:13.278Z,2.58
2024-02-21T16:07:42.855Z,2.40
2024-02-21T16:10:13.780Z,3.58
2024-02-21T16:12:43.148Z,2.70
2024-02-21T16:15:13.603Z,2.70
2024-02-21T16:17:42.686Z,2.72
2024-02-21T16:20:12.759Z,3.00
2024-02-21T16:22:41.915Z,4.43
2024-02-21T16:25:13.108Z,2.45
2024-02-21T16:27:48.013Z,2.53
2024-02-21T16:30:18.695Z,3.47
2024-02-21T16:32:47.799Z,2.53
2024-02-21T16:35:17.373Z,2.95
2024-02-21T16:37:46.580Z,2.58
2024-02-21T16:40:20.549Z,2.42
2024-02-21T16:42:51.582Z,2.33
2024-02-21T16:45:22.723Z,2.10
2024-02-21T16:47:51.851Z,2.17
2024-02-21T16:50:21.079Z,2.22
2024-02-21T16:52:51.755Z,2.00
2024-02-21T16:55:23.808Z,2.10
2024-02-21T16:57:52.889Z,1.92
2024-02-21T17:00:22.545Z,1.50
2024-02-21T17:02:55.560Z,1.52
2024-02-21T17:05:29.067Z,1.85
2024-02-21T17:07:58.390Z,1.90
2024-02-21T17:10:29.069Z,1.58
2024-02-21T17:12:58.105Z,0.98
2024-02-21T17:15:28.002Z,1.00
2024-02-21T17:17:57.072Z,1.70
2024-02-21T17:20:26.207Z,1.25
2024-02-21T17:22:55.310Z,1.10
2024-02-21T17:25:24.737Z,1.73
2024-02-21T17:27:55.797Z,1.02
2024-02-21T17:30:26.215Z,0.93
2024-02-21T17:32:55.478Z,0.80
2024-02-21T17:35:24.627Z,1.08
2024-02-21T17:37:53.825Z,1.25
2024-02-21T17:40:22.966Z,0.90
2024-02-21T17:42:52.064Z,0.93
2024-02-21T17:45:22.775Z,0.80
2024-02-21T17:47:53.678Z,1.30
2024-02-21T17:50:23.486Z,0.50
2024-02-21T17:52:53.196Z,0.52
2024-02-21T17:55:22.370Z,0.50
2024-02-21T17:57:51.629Z,0.73
2024-02-21T18:00:23.588Z,2.75
2024-02-21T18:02:52.552Z,1.33
2024-02-21T18:05:22.376Z,1.83
2024-02-21T18:07:51.962Z,1.17
2024-02-21T18:10:20.955Z,1.17
2024-02-21T18:12:50.029Z,1.75
2024-02-21T18:15:19.132Z,1.08
2024-02-21T18:17:50.364Z,3.22
2024-02-21T18:20:20.239Z,2.13
2024-02-21T18:22:49.314Z,1.00
2024-02-21T18:25:19.214Z,1.75
2024-02-21T18:27:48.212Z,2.42
2024-02-21T18:30:17.674Z,1.35
2024-02-21T18:32:46.818Z,1.15
2024-02-21T18:35:17.804Z,1.75
2024-02-21T18:37:47.578Z,1.70
2024-02-21T18:40:18.128Z,2.03
2024-02-21T18:42:48.424Z,0.85
2024-02-21T18:45:17.623Z,1.73
2024-02-21T18:47:46.754Z,1.10
2024-02-21T18:50:17.629Z,1.48
2024-02-21T18:52:46.853Z,0.88
2024-02-21T18:55:17.580Z,1.40
2024-02-21T18:57:46.594Z,0.90
2024-02-21T19:00:18.903Z,1.23
2024-02-21T19:02:49.183Z,1.77
2024-02-21T19:05:23.580Z,1.23
2024-02-21T19:07:52.916Z,1.00
2024-02-21T19:10:22.872Z,0.77
2024-02-21T19:12:52.016Z,0.93
2024-02-21T19:15:21.025Z,1.23
2024-02-21T19:17:50.122Z,1.00
2024-02-21T19:20:21.129Z,0.65
2024-02-21T19:22:50.340Z,1.55
2024-02-21T19:25:23.443Z,0.80
2024-02-21T19:27:52.518Z,1.15
2024-02-21T19:30:24.189Z,1.20
2024-02-21T19:32:54.465Z,0.88
2024-02-21T19:35:25.310Z,1.40
2024-02-21T19:37:54.420Z,0.75
2024-02-21T19:40:25.084Z,1.30
2024-02-21T19:42:55.181Z,3.75
2024-02-21T19:45:24.799Z,3.22
2024-02-21T19:47:53.963Z,1.48
2024-02-21T19:50:30.023Z,1.52
2024-02-21T19:52:59.144Z,2.03
2024-02-21T19:55:29.128Z,1.88
2024-02-21T19:57:59.167Z,1.25
2024-02-21T20:00:29.566Z,1.38
2024-02-21T20:02:58.650Z,1.10
2024-02-21T20:05:29.658Z,0.88
2024-02-21T20:07:59.049Z,0.95
2024-02-21T20:10:28.202Z,1.23
2024-02-21T20:12:57.406Z,1.30
2024-02-21T20:15:27.809Z,1.30
2024-02-21T20:17:58.153Z,1.00
2024-02-21T20:20:35.151Z,1.17
2024-02-21T20:23:04.476Z,1.83
2024-02-21T20:25:33.504Z,1.08
2024-02-21T20:28:02.561Z,0.77
2024-02-21T20:30:31.654Z,2.45
2024-02-21T20:33:00.997Z,0.85
2024-02-21T20:35:32.270Z,1.40
2024-02-21T20:38:01.377Z,1.27
2024-02-21T20:40:30.437Z,1.30
2024-02-21T20:42:59.526Z,0.90
2024-02-21T20:45:28.529Z,1.27
2024-02-21T20:47:57.543Z,2.63
2024-02-21T20:50:27.098Z,1.50
2024-02-21T20:52:57.841Z,1.88
2024-02-21T20:55:27.058Z,1.80
2024-02-21T20:57:56.449Z,1.63
2024-02-21T21:00:25.752Z,1.30
2024-02-21T21:02:55.035Z,3.10
2024-02-21T21:05:26.444Z,1.40
2024-02-21T21:07:57.241Z,2.15
2024-02-21T21:55:25.187Z,1.85
2024-02-21T21:57:56.019Z,3.45
2024-02-21T22:00:25.094Z,1.92
2024-02-21T22:02:54.211Z,2.28
2024-02-21T22:05:23.497Z,1.98
2024-02-21T22:07:52.600Z,1.80
2024-02-21T22:10:21.730Z,1.77
2024-02-21T22:12:50.950Z,2.08
2024-02-21T22:15:21.657Z,3.67
2024-02-21T22:17:50.740Z,2.22
2024-02-21T22:20:24.465Z,2.00
2024-02-21T22:22:53.696Z,3.58
2024-02-21T22:25:24.194Z,4.25
2024-02-21T22:27:53.249Z,2.95
2024-02-21T22:30:24.174Z,1.88
2024-02-21T22:32:53.766Z,3.17
2024-02-21T22:35:23.702Z,2.65
2024-02-21T22:37:52.880Z,2.45
2024-02-21T22:40:22.130Z,2.10
2024-02-21T22:42:51.170Z,2.60
2024-02-21T22:45:20.870Z,1.88
2024-02-21T22:47:51.704Z,3.30
2024-02-21T22:50:20.991Z,4.70
2024-02-21T22:52:50.046Z,3.15
2024-02-21T22:55:19.233Z,2.33
2024-02-21T22:57:48.273Z,4.78
2024-02-21T23:00:18.332Z,2.55
2024-02-21T23:02:47.313Z,2.00
2024-02-21T23:05:21.396Z,2.45
2024-02-21T23:07:54.237Z,3.35
2024-02-21T23:10:27.348Z,1.67
2024-02-21T23:12:56.434Z,1.90
2024-02-21T23:15:25.428Z,2.53
2024-02-21T23:17:55.379Z,1.60
2024-02-21T23:20:26.589Z,2.53
2024-02-21T23:22:55.946Z,3.15
2024-02-21T23:25:26.097Z,3.10
2024-02-21T23:27:55.068Z,2.22
2024-02-21T23:30:24.201Z,1.75
2024-02-21T23:32:53.297Z,3.35
2024-02-21T23:35:22.383Z,2.33
2024-02-21T23:37:53.656Z,2.00
2024-02-21T23:40:23.947Z,2.42
2024-02-21T23:42:53.084Z,3.03
2024-02-21T23:45:22.693Z,2.25
2024-02-21T23:47:51.714Z,2.08
2024-02-21T23:50:21.955Z,3.60
2024-02-21T23:52:52.814Z,3.55
2024-02-21T23:55:21.953Z,2.05
2024-02-21T23:57:51.019Z,1.58
